createdAt,value
2018-07-28T00:00:34.586Z,94977.11
2018-07-28T00:03:03.326Z,94968.15
2018-07-28T00:05:32.146Z,94969.69
2018-07-28T00:08:00.930Z,94969.52
2018-07-28T00:10:29.791Z,94972.86
2018-07-28T00:12:58.579Z,94978.92
2018-07-28T00:15:27.306Z,94975.98
2018-07-28T00:17:56.018Z,94976.94
2018-07-28T00:20:24.692Z,94979.06
2018-07-28T00:22:53.373Z,94980.64
2018-07-28T00:25:22.255Z,94983.95
2018-07-28T00:27:50.904Z,94989.44
2018-07-28T00:30:19.598Z,94986.14
2018-07-28T00:32:48.786Z,94985.38
2018-07-28T00:35:17.458Z,94983.23
2018-07-28T00:37:46.133Z,94953.61
2018-07-28T00:40:14.822Z,94976.79
2018-07-28T00:42:43.554Z,94981.28
2018-07-28T00:45:12.317Z,94983.78
2018-07-28T00:47:40.995Z,94984.63
2018-07-28T00:50:10.381Z,94976.59
2018-07-28T00:52:39.235Z,94982.27
2018-07-28T00:55:08.220Z,94974.30
2018-07-28T00:57:37.149Z,94977.63
2018-07-28T01:00:08.108Z,94976.08
2018-07-28T01:02:37.102Z,94975.46
2018-07-28T01:05:06.502Z,94974.30
2018-07-28T01:07:35.478Z,94967.25
2018-07-28T01:10:05.251Z,94965.10
2018-07-28T01:12:34.531Z,94972.74
2018-07-28T01:15:03.587Z,94975.09
2018-07-28T01:17:32.831Z,94966.52
2018-07-28T01:20:02.147Z,94959.30
2018-07-28T01:22:31.146Z,94961.82
2018-07-28T01:24:59.940Z,94961.23
2018-07-28T01:27:29.142Z,94963.41
2018-07-28T01:29:57.881Z,94949.95
2018-07-28T01:32:26.493Z,94951.12
2018-07-28T01:34:55.178Z,94951.12
2018-07-28T01:37:23.919Z,94951.31
2018-07-28T01:39:52.601Z,94953.66
2018-07-28T01:42:21.245Z,94950.72
2018-07-28T01:44:50.401Z,94948.58
2018-07-28T01:47:19.306Z,94900.81
2018-07-28T01:49:48.012Z,94951.91
2018-07-28T01:52:16.755Z,94954.83
2018-07-28T01:54:45.534Z,94943.11
2018-07-28T01:57:14.567Z,94945.68
2018-07-28T01:59:43.379Z,94951.16
2018-07-28T02:02:12.149Z,94945.67
2018-07-28T02:04:41.167Z,94952.91
2018-07-28T02:07:10.175Z,94951.55
2018-07-28T02:09:38.990Z,94951.54
2018-07-28T02:12:08.443Z,94951.36
2018-07-28T02:14:37.482Z,94953.67
2018-07-28T02:17:06.255Z,94949.98
2018-07-28T02:19:35.307Z,94950.95
2018-07-28T02:22:04.102Z,94958.17
2018-07-28T02:24:32.943Z,94963.25
2018-07-28T02:27:01.958Z,94962.48
2018-07-28T02:29:31.067Z,94962.47
2018-07-28T02:32:00.053Z,94968.72
2018-07-28T02:34:28.870Z,94963.06
2018-07-28T02:36:58.634Z,94963.84
2018-07-28T02:39:27.589Z,94788.45
2018-07-28T02:41:56.523Z,94965.40
2018-07-28T02:44:25.165Z,94966.39
2018-07-28T02:46:53.802Z,94958.95
2018-07-28T02:49:22.575Z,94969.11
2018-07-28T02:51:51.392Z,94984.93
2018-07-28T02:54:20.195Z,94823.92
2018-07-28T02:56:49.060Z,94979.26
2018-07-28T02:59:18.979Z,94971.25
2018-07-28T03:01:48.218Z,94981.81
2018-07-28T03:04:17.057Z,94980.81
2018-07-28T03:06:46.987Z,94984.53
2018-07-28T03:09:15.809Z,94976.72
2018-07-28T03:11:44.637Z,94979.85
2018-07-28T03:14:13.644Z,94985.48
2018-07-28T03:16:42.391Z,94991.56
2018-07-28T03:19:11.213Z,94990.20
2018-07-28T03:21:40.595Z,94988.83
2018-07-28T03:24:09.399Z,94984.14
2018-07-28T03:26:38.168Z,94990.18
2018-07-28T03:29:07.091Z,94990.20
2018-07-28T03:31:36.755Z,94987.63
2018-07-28T03:34:05.640Z,94985.71
2018-07-28T03:36:34.438Z,94984.53
2018-07-28T03:39:03.419Z,94994.09
2018-07-28T03:41:32.438Z,94992.53
2018-07-28T03:44:01.426Z,94991.17
2018-07-28T03:46:30.166Z,94998.02
2018-07-28T03:48:59.124Z,94993.32
2018-07-28T03:51:28.556Z,94986.67
2018-07-28T03:53:57.582Z,94983.55
2018-07-28T03:56:26.642Z,94979.44
2018-07-28T03:58:56.185Z,94979.65
2018-07-28T04:01:24.901Z,94971.83
2018-07-28T04:03:54.112Z,94975.74
2018-07-28T04:06:22.923Z,94969.07
2018-07-28T04:08:52.297Z,94974.92
2018-07-28T04:11:21.750Z,94975.50
2018-07-28T04:13:51.464Z,94984.46
2018-07-28T04:16:20.569Z,94986.23
2018-07-28T04:18:49.372Z,94987.80
2018-07-28T04:21:18.380Z,94987.77
2018-07-28T04:23:47.335Z,94989.48
2018-07-28T04:26:16.135Z,94984.42
2018-07-28T04:28:44.884Z,94989.66
2018-07-28T04:31:13.619Z,94980.44
2018-07-28T04:33:42.334Z,94992.31
2018-07-28T04:36:11.270Z,94990.12
2018-07-28T04:38:40.019Z,94995.97
2018-07-28T04:41:09.010Z,95001.17
2018-07-28T04:43:38.160Z,95000.53
2018-07-28T04:46:06.959Z,94996.80
2018-07-28T04:48:35.924Z,95000.29
2018-07-28T04:51:05.346Z,95000.23
2018-07-28T04:53:36.695Z,94995.28
2018-07-28T04:56:06.735Z,95000.45
2018-07-28T04:58:36.031Z,95006.41
2018-07-28T05:01:05.872Z,95004.16
2018-07-28T05:03:35.440Z,95000.70
2018-07-28T05:06:04.911Z,95000.72
2018-07-28T05:08:33.914Z,95006.52
2018-07-28T05:11:03.259Z,95000.76
2018-07-28T05:13:33.425Z,95001.34
2018-07-28T05:16:03.443Z,94994.02
2018-07-28T05:18:32.699Z,95000.95
2018-07-28T05:21:02.436Z,95002.28
2018-07-28T05:23:31.679Z,95012.61
2018-07-28T05:26:01.324Z,95004.06
2018-07-28T05:28:31.007Z,95014.68
2018-07-28T05:30:59.994Z,95022.00
2018-07-28T05:33:28.790Z,95027.94
2018-07-28T05:35:58.431Z,95027.44
2018-07-28T05:38:27.519Z,95023.73
2018-07-28T05:40:56.207Z,95024.67
2018-07-28T05:43:24.842Z,95034.30
2018-07-28T05:45:53.563Z,95028.50
2018-07-28T05:48:22.562Z,95035.84
2018-07-28T05:50:51.623Z,95036.65
2018-07-28T05:53:20.515Z,95041.27
2018-07-28T05:55:49.474Z,95039.53
2018-07-28T05:58:18.463Z,95039.98
2018-07-28T06:00:47.363Z,95037.45
2018-07-28T06:03:16.667Z,95040.70
2018-07-28T06:05:45.495Z,95030.97
2018-07-28T06:08:14.276Z,95034.38
2018-07-28T06:10:43.023Z,95027.42
2018-07-28T06:13:11.736Z,94971.77
2018-07-28T06:15:40.455Z,95025.98
2018-07-28T06:18:09.618Z,95025.77
2018-07-28T06:20:39.478Z,95032.58
2018-07-28T06:23:08.126Z,95025.41
2018-07-28T06:25:36.881Z,95020.55
2018-07-28T06:28:05.586Z,95018.89
2018-07-28T06:30:34.477Z,95018.39
2018-07-28T06:33:03.106Z,95016.12
2018-07-28T06:35:31.779Z,95017.06
2018-07-28T06:38:00.670Z,95021.48
2018-07-28T06:40:29.352Z,95018.73
2018-07-28T06:42:58.027Z,95015.37
2018-07-28T06:45:26.898Z,95011.91
2018-07-28T06:47:55.855Z,95016.55
2018-07-28T06:50:24.523Z,95014.77
2018-07-28T06:52:53.132Z,95015.94
2018-07-28T06:55:21.798Z,95020.97
2018-07-28T06:57:51.247Z,95011.23
2018-07-28T07:00:19.910Z,95002.80
2018-07-28T07:02:48.626Z,95009.31
2018-07-28T07:05:17.365Z,95010.96
2018-07-28T07:07:45.981Z,95001.30
2018-07-28T07:10:14.940Z,95002.78
2018-07-28T07:12:43.888Z,95000.83
2018-07-28T07:15:12.536Z,95001.75
2018-07-28T07:17:41.176Z,94991.28
2018-07-28T07:20:10.158Z,94993.38
2018-07-28T07:22:38.799Z,94990.73
2018-07-28T07:25:07.792Z,94992.70
2018-07-28T07:27:36.451Z,94988.08
2018-07-28T07:30:07.148Z,94994.37
2018-07-28T07:32:35.852Z,94990.66
2018-07-28T07:35:04.575Z,94995.67
2018-07-28T07:37:33.202Z,94992.19
2018-07-28T07:40:01.847Z,94983.11
2018-07-28T07:42:30.472Z,94988.41
2018-07-28T07:44:59.391Z,94993.39
2018-07-28T07:47:28.377Z,94988.80
2018-07-28T07:49:56.991Z,94987.17
2018-07-28T07:52:25.712Z,94987.53
2018-07-28T07:54:54.683Z,94993.75
2018-07-28T07:57:23.321Z,94990.37
2018-07-28T07:59:51.971Z,94997.35
2018-07-28T08:02:20.633Z,94990.56
2018-07-28T08:04:49.281Z,94989.83
2018-07-28T08:07:17.899Z,94992.44
2018-07-28T08:09:46.760Z,94993.16
2018-07-28T08:12:15.473Z,94989.59
2018-07-28T08:14:44.385Z,94991.27
2018-07-28T08:17:13.376Z,94996.08
2018-07-28T08:19:42.038Z,94985.98
2018-07-28T08:22:11.495Z,94990.49
2018-07-28T08:24:40.713Z,94984.98
2018-07-28T08:27:09.464Z,94987.97
2018-07-28T08:29:38.395Z,94989.48
2018-07-28T08:32:07.146Z,94985.34
2018-07-28T08:34:36.359Z,94978.57
2018-07-28T08:37:05.068Z,94984.91
2018-07-28T08:39:33.987Z,94986.47
2018-07-28T08:42:02.706Z,94981.53
2018-07-28T08:44:31.592Z,94983.23
2018-07-28T08:47:00.482Z,94981.00
2018-07-28T08:49:29.416Z,94982.41
2018-07-28T08:51:58.046Z,94980.53
2018-07-28T08:54:27.018Z,94969.80
2018-07-28T08:56:55.995Z,94972.98
2018-07-28T08:59:24.854Z,94964.09
2018-07-28T09:01:53.796Z,94964.30
2018-07-28T09:04:22.858Z,94961.32
2018-07-28T09:06:52.308Z,94955.36
2018-07-28T09:09:21.255Z,94957.38
2018-07-28T09:11:50.441Z,94955.55
2018-07-28T09:14:19.099Z,94948.84
2018-07-28T09:16:48.501Z,94948.19
2018-07-28T09:19:17.539Z,94945.59
2018-07-28T09:21:46.921Z,94945.11
2018-07-28T09:24:16.566Z,94941.58
2018-07-28T09:26:45.806Z,94941.40
2018-07-28T09:29:14.608Z,94931.23
2018-07-28T09:31:43.392Z,94935.80
2018-07-28T09:34:12.445Z,94932.69
2018-07-28T09:36:41.383Z,94927.78
2018-07-28T09:39:11.786Z,94933.09
2018-07-28T09:41:41.062Z,94932.83
2018-07-28T09:44:10.023Z,94923.17
2018-07-28T09:46:39.209Z,94914.12
2018-07-28T09:49:08.172Z,94922.56
2018-07-28T09:51:36.895Z,94908.53
2018-07-28T09:54:06.318Z,94905.69
2018-07-28T09:56:36.072Z,94900.74
2018-07-28T09:59:05.006Z,94899.28
2018-07-28T10:01:33.922Z,94899.28
2018-07-28T10:04:02.923Z,94900.29
2018-07-28T10:06:32.180Z,94889.45
2018-07-28T10:09:00.939Z,94891.78
2018-07-28T10:11:30.226Z,94888.64
2018-07-28T10:13:58.872Z,94884.23
2018-07-28T10:16:28.732Z,94880.95
2018-07-28T10:18:57.363Z,94878.83
2018-07-28T10:21:26.426Z,94880.88
2018-07-28T10:23:55.159Z,94878.23
2018-07-28T10:26:24.059Z,94871.33
2018-07-28T10:28:53.357Z,94867.59
2018-07-28T10:31:22.632Z,94864.75
2018-07-28T10:33:51.553Z,94860.27
2018-07-28T10:36:20.278Z,94861.88
2018-07-28T10:38:48.934Z,94855.66
2018-07-28T10:41:17.685Z,94855.56
2018-07-28T10:43:46.878Z,94854.22
2018-07-28T10:46:19.448Z,94853.76
2018-07-28T10:48:48.875Z,94857.25
2018-07-28T10:51:17.770Z,94853.90
2018-07-28T10:53:46.595Z,94850.00
2018-07-28T10:56:15.807Z,94852.48
2018-07-28T10:58:45.150Z,94850.42
2018-07-28T11:01:14.091Z,94851.09
2018-07-28T11:03:43.962Z,94848.55
2018-07-28T11:06:13.186Z,94848.95
2018-07-28T11:08:42.142Z,94848.47
2018-07-28T11:11:11.025Z,94838.66
2018-07-28T11:13:40.240Z,94840.16
2018-07-28T11:16:09.338Z,94835.19
2018-07-28T11:18:38.556Z,94835.39
2018-07-28T11:21:07.604Z,94812.89
2018-07-28T11:23:56.422Z,94831.76
2018-07-28T11:26:25.559Z,94828.92
2018-07-28T11:28:54.693Z,94819.75
2018-07-28T11:31:35.092Z,94827.02
2018-07-28T11:34:14.998Z,94820.31
2018-07-28T11:36:55.422Z,94824.48
2018-07-28T11:39:35.245Z,94820.20
2018-07-28T11:42:14.948Z,94815.17
2018-07-28T11:45:20.840Z,94820.73
2018-07-28T11:47:49.606Z,94810.54
2018-07-28T11:50:19.182Z,94807.05
2018-07-28T11:52:47.830Z,94804.84
2018-07-28T11:55:16.483Z,94810.78
2018-07-28T11:57:45.071Z,94803.25
2018-07-28T12:00:13.792Z,94801.53
2018-07-28T12:02:42.750Z,94798.09
2018-07-28T12:05:11.404Z,94800.70
2018-07-28T12:07:40.269Z,94807.91
2018-07-28T12:10:09.996Z,94798.55
2018-07-28T12:12:38.967Z,94799.42
2018-07-28T12:15:08.158Z,94797.52
2018-07-28T12:17:36.810Z,94798.02
2018-07-28T12:20:05.683Z,94795.61
2018-07-28T12:22:34.333Z,94796.20
2018-07-28T12:25:03.008Z,94799.08
2018-07-28T12:27:31.748Z,94797.23
2018-07-28T12:30:00.803Z,94797.48
2018-07-28T12:32:29.473Z,94791.02
2018-07-28T12:34:58.218Z,94789.09
2018-07-28T12:37:26.964Z,94786.45
2018-07-28T12:39:55.626Z,94786.05
2018-07-28T12:42:24.274Z,94788.50
2018-07-28T12:44:52.982Z,94789.31
2018-07-28T12:47:21.902Z,94644.38
2018-07-28T12:49:50.581Z,94782.67
2018-07-28T12:52:19.257Z,94779.59
2018-07-28T12:54:48.477Z,94773.88
2018-07-28T12:57:17.374Z,94772.39
2018-07-28T12:59:46.690Z,94779.42
2018-07-28T13:02:15.359Z,94775.16
2018-07-28T13:04:44.001Z,94774.88
2018-07-28T13:07:12.624Z,94773.59
2018-07-28T13:09:41.243Z,94777.91
2018-07-28T13:12:09.948Z,94773.90
2018-07-28T13:14:38.909Z,94769.48
2018-07-28T13:17:07.846Z,94773.24
2018-07-28T13:19:36.545Z,94772.67
2018-07-28T13:22:05.228Z,94768.50
2018-07-28T13:24:34.304Z,94770.08
2018-07-28T13:27:02.998Z,94642.29
2018-07-28T13:29:31.647Z,94770.33
2018-07-28T13:32:00.282Z,94771.73
2018-07-28T13:34:28.902Z,94767.67
2018-07-28T13:36:57.598Z,94776.70
2018-07-28T13:39:26.624Z,94778.52
2018-07-28T13:41:55.274Z,94775.06
2018-07-28T13:44:23.894Z,94780.28
2018-07-28T13:46:52.594Z,94776.34
2018-07-28T13:49:21.225Z,94775.56
2018-07-28T13:51:49.881Z,94782.82
2018-07-28T13:54:18.508Z,94795.00
2018-07-28T13:56:47.140Z,94797.59
2018-07-28T13:59:15.943Z,94795.65
2018-07-28T14:01:44.586Z,94794.02
2018-07-28T14:04:13.181Z,94793.48
2018-07-28T14:06:42.095Z,94792.59
2018-07-28T14:09:11.315Z,94794.30
2018-07-28T14:11:39.978Z,94792.27
2018-07-28T14:14:08.618Z,94791.80
2018-07-28T14:16:37.270Z,94790.71
2018-07-28T14:19:05.924Z,94784.41
2018-07-28T14:21:34.615Z,94794.44
2018-07-28T14:24:03.252Z,94792.74
2018-07-28T14:26:31.997Z,94803.51
2018-07-28T14:29:00.591Z,94809.97
2018-07-28T14:31:29.495Z,94800.90
2018-07-28T14:33:58.145Z,94793.31
2018-07-28T14:36:26.856Z,94792.57
2018-07-28T14:38:55.503Z,94804.16
2018-07-28T14:41:24.412Z,94798.42
2018-07-28T14:43:53.036Z,94800.26
2018-07-28T14:46:21.719Z,94802.11
2018-07-28T14:48:50.386Z,94812.14
2018-07-28T14:51:19.015Z,94812.92
2018-07-28T14:53:47.958Z,94814.19
2018-07-28T14:56:16.599Z,94815.57
2018-07-28T14:58:45.219Z,94808.15
2018-07-28T15:01:14.133Z,94812.63
2018-07-28T15:03:42.803Z,94816.34
2018-07-28T15:06:11.548Z,94818.35
2018-07-28T15:08:40.230Z,94816.80
2018-07-28T15:11:09.155Z,94821.55
2018-07-28T15:13:37.762Z,94821.50
2018-07-28T15:16:06.447Z,94816.69
2018-07-28T15:18:35.091Z,94804.54
2018-07-28T15:21:03.779Z,94803.14
2018-07-28T15:23:32.405Z,94810.82
2018-07-28T15:26:01.071Z,94813.59
2018-07-28T15:28:30.425Z,94810.32
2018-07-28T15:30:59.129Z,94811.59
2018-07-28T15:33:27.762Z,94817.69
2018-07-28T15:35:56.393Z,94815.88
2018-07-28T15:38:25.055Z,94815.27
2018-07-28T15:40:53.691Z,94817.13
2018-07-28T15:43:22.305Z,94822.52
2018-07-28T15:45:50.955Z,94829.16
2018-07-28T15:48:19.607Z,94836.30
2018-07-28T15:50:48.533Z,94833.66
2018-07-28T15:53:17.152Z,94820.99
2018-07-28T15:55:45.859Z,94826.38
2018-07-28T15:58:14.545Z,94830.06
2018-07-28T16:00:43.432Z,94825.59
2018-07-28T16:03:12.067Z,94823.59
2018-07-28T16:05:40.727Z,94831.63
2018-07-28T16:08:09.346Z,94831.58
2018-07-28T16:10:38.026Z,94842.73
2018-07-28T16:13:07.175Z,94840.05
2018-07-28T16:15:35.862Z,94850.44
2018-07-28T16:18:04.682Z,94851.23
2018-07-28T16:20:33.303Z,94847.63
2018-07-28T16:23:01.977Z,94851.61
2018-07-28T16:25:30.622Z,94849.70
2018-07-28T16:27:59.614Z,94855.00
2018-07-28T16:30:28.302Z,94858.83
2018-07-28T16:32:56.970Z,94857.69
2018-07-28T16:35:25.670Z,94859.45
2018-07-28T16:37:54.342Z,94851.97
2018-07-28T16:40:23.053Z,94856.69
2018-07-28T16:42:51.926Z,94847.42
2018-07-28T16:45:20.538Z,94855.97
2018-07-28T16:47:49.206Z,94849.83
2018-07-28T16:50:17.890Z,94850.40
2018-07-28T16:52:46.551Z,94849.59
2018-07-28T16:55:15.805Z,94852.97
2018-07-28T16:57:44.427Z,94849.64
2018-07-28T17:00:13.126Z,94853.27
2018-07-28T17:02:42.091Z,94855.04
2018-07-28T17:05:10.739Z,94854.95
2018-07-28T17:07:39.374Z,94867.54
2018-07-28T17:10:08.454Z,94874.53
2018-07-28T17:12:37.089Z,94873.89
2018-07-28T17:15:06.506Z,94875.05
2018-07-28T17:17:35.442Z,94877.72
2018-07-28T17:20:04.470Z,94885.01
2018-07-28T17:22:33.181Z,94893.31
2018-07-28T17:25:01.859Z,94894.52
2018-07-28T17:27:30.472Z,94892.52
2018-07-28T17:29:59.214Z,94885.88
2018-07-28T17:32:28.246Z,94888.84
2018-07-28T17:34:57.595Z,94878.24
2018-07-28T17:37:26.501Z,94881.40
2018-07-28T17:39:55.291Z,94888.81
2018-07-28T17:42:23.984Z,94883.37
2018-07-28T17:44:52.727Z,94887.66
2018-07-28T17:47:21.446Z,94887.19
2018-07-28T17:49:50.106Z,94896.67
2018-07-28T17:52:18.933Z,94913.09
2018-07-28T17:54:47.620Z,94905.55
2018-07-28T17:57:16.548Z,94905.87
2018-07-28T17:59:45.578Z,94912.42
2018-07-28T18:02:15.187Z,94920.25
2018-07-28T18:04:43.828Z,94927.81
2018-07-28T18:07:12.523Z,94939.41
2018-07-28T18:09:41.294Z,94948.51
2018-07-28T18:12:10.666Z,94943.30
2018-07-28T18:14:39.635Z,94942.11
2018-07-28T18:17:08.905Z,94945.23
2018-07-28T18:19:38.278Z,94948.92
2018-07-28T18:22:07.102Z,94959.63
2018-07-28T18:24:36.060Z,94976.85
2018-07-28T18:27:04.778Z,94975.69
2018-07-28T18:29:33.643Z,94977.42
2018-07-28T18:32:02.775Z,94983.89
2018-07-28T18:34:31.910Z,94984.57
2018-07-28T18:37:00.555Z,94976.33
2018-07-28T18:39:29.399Z,94981.27
2018-07-28T18:41:58.330Z,94977.98
2018-07-28T18:44:27.326Z,94976.79
2018-07-28T18:46:55.978Z,94973.65
2018-07-28T18:49:24.869Z,94990.16
2018-07-28T18:51:53.886Z,94988.27
2018-07-28T18:54:22.777Z,95004.12
2018-07-28T18:56:52.055Z,95015.41
2018-07-28T18:59:20.963Z,95025.56
2018-07-28T19:01:49.623Z,95029.52
2018-07-28T19:04:18.575Z,95028.39
2018-07-28T19:06:47.473Z,95031.34
2018-07-28T19:09:21.246Z,95031.67
2018-07-28T19:11:50.456Z,95030.05
2018-07-28T19:14:24.555Z,95031.21
2018-07-28T19:16:53.581Z,95035.70
2018-07-28T19:19:22.489Z,95036.53
2018-07-28T19:21:51.591Z,95037.36
2018-07-28T19:24:21.370Z,95044.20
2018-07-28T19:26:50.351Z,95045.81
2018-07-28T19:29:24.238Z,95038.04
2018-07-28T19:31:52.882Z,95037.08
2018-07-28T19:34:22.346Z,95032.16
2018-07-28T19:36:56.725Z,95030.96
2018-07-28T19:39:25.643Z,95036.23
2018-07-28T19:41:59.701Z,95034.66
2018-07-28T19:44:29.262Z,95039.31
2018-07-28T19:46:57.984Z,95033.46
2018-07-28T19:49:28.398Z,95031.92
2018-07-28T19:51:57.327Z,95032.53
2018-07-28T19:54:27.068Z,95022.98
2018-07-28T19:56:56.505Z,95021.30
2018-07-28T19:59:25.374Z,95020.91
2018-07-28T20:01:54.424Z,95023.23
2018-07-28T20:04:23.317Z,95025.45
2018-07-28T20:06:53.436Z,95022.71
2018-07-28T20:09:22.780Z,95029.16
2018-07-28T20:11:51.829Z,95030.53
2018-07-28T20:14:20.879Z,95028.16
2018-07-28T20:16:49.839Z,95026.73
2018-07-28T20:19:18.654Z,95019.69
2018-07-28T20:21:47.840Z,95022.81
2018-07-28T20:24:17.330Z,95020.07
2018-07-28T20:26:46.876Z,95008.33
2018-07-28T20:29:15.919Z,95010.45
2018-07-28T20:31:44.831Z,95003.41
2018-07-28T20:34:13.704Z,94995.19
2018-07-28T20:36:42.640Z,94995.36
2018-07-28T20:39:12.498Z,94995.94
2018-07-28T20:41:41.286Z,94986.73
2018-07-28T20:44:10.128Z,94983.41
2018-07-28T20:46:39.178Z,94983.41
2018-07-28T20:49:07.863Z,94982.20
2018-07-28T20:51:36.718Z,94994.32
2018-07-28T20:54:05.386Z,94987.47
2018-07-28T20:56:34.710Z,94998.02
2018-07-28T20:59:03.910Z,94995.27
2018-07-28T21:01:32.573Z,94994.31
2018-07-28T21:04:01.787Z,94997.59
2018-07-28T21:06:31.083Z,95004.27
2018-07-28T21:09:00.762Z,95013.04
2018-07-28T21:11:29.646Z,95018.72
2018-07-28T21:13:59.215Z,95020.92
2018-07-28T21:16:27.936Z,95026.78
2018-07-28T21:18:56.963Z,95024.66
2018-07-28T21:21:26.059Z,95027.20
2018-07-28T21:23:55.019Z,95021.52
2018-07-28T21:26:23.990Z,95020.55
2018-07-28T21:28:52.798Z,95013.50
2018-07-28T21:31:21.735Z,95011.30
2018-07-28T21:33:50.382Z,95022.45
2018-07-28T21:36:19.090Z,95025.40
2018-07-28T21:38:48.127Z,95021.70
2018-07-28T21:41:16.930Z,95028.34
2018-07-28T21:43:45.954Z,95023.04
2018-07-28T21:46:14.737Z,95023.29
2018-07-28T21:48:43.470Z,95023.67
2018-07-28T21:51:12.182Z,95020.38
2018-07-28T21:53:42.253Z,95026.82
2018-07-28T21:56:11.206Z,95026.64
2018-07-28T21:58:40.003Z,95019.22
2018-07-28T22:01:14.789Z,95030.14
2018-07-28T22:03:43.589Z,95028.02
2018-07-28T22:06:12.590Z,95035.27
2018-07-28T22:08:42.043Z,95030.23
2018-07-28T22:11:11.395Z,95023.19
2018-07-28T22:13:41.771Z,95031.02
2018-07-28T22:16:11.643Z,95027.91
2018-07-28T22:18:40.518Z,95032.39
2018-07-28T22:21:11.245Z,95020.30
2018-07-28T22:23:40.175Z,95020.70
2018-07-28T22:26:09.133Z,95020.70
2018-07-28T22:28:38.469Z,95018.78
2018-07-28T22:31:07.974Z,95013.73
2018-07-28T22:33:36.957Z,95006.87
2018-07-28T22:36:05.912Z,95012.34
2018-07-28T22:38:34.843Z,95008.62
2018-07-28T22:41:03.562Z,95014.52
2018-07-28T22:43:32.243Z,95009.61
2018-07-28T22:46:00.893Z,95009.23
2018-07-28T22:48:31.198Z,95004.52
2018-07-28T22:51:00.718Z,94999.03
2018-07-28T22:53:29.450Z,94994.96
2018-07-28T22:55:58.442Z,94990.07
2018-07-28T22:58:27.416Z,94992.22
2018-07-28T23:00:56.481Z,94989.31
2018-07-28T23:03:25.399Z,94993.41
2018-07-28T23:05:54.468Z,94994.58
2018-07-28T23:08:23.207Z,94996.34
2018-07-28T23:10:52.082Z,94992.07
2018-07-28T23:13:20.798Z,95000.66
2018-07-28T23:15:50.239Z,95005.14
2018-07-28T23:18:19.219Z,94997.52
2018-07-28T23:20:48.374Z,94989.89
2018-07-28T23:23:17.554Z,94991.06
2018-07-28T23:25:46.734Z,94994.17
2018-07-28T23:28:15.642Z,95003.14
2018-07-28T23:30:44.856Z,94998.28
2018-07-28T23:33:14.082Z,95004.72
2018-07-28T23:35:43.004Z,95000.98
2018-07-28T23:38:11.963Z,95002.56
2018-07-28T23:40:40.916Z,95002.95
2018-07-28T23:43:09.911Z,95006.27
2018-07-28T23:45:39.211Z,95005.88
2018-07-28T23:48:07.876Z,95005.88
2018-07-28T23:50:36.997Z,94995.89
2018-07-28T23:53:05.703Z,94999.02
2018-07-28T23:55:34.498Z,94991.99
2018-07-28T23:58:04.012Z,94988.47
